Time;durP1;ratioP1;P1;durP2;ratioP2;P2;SDS_P1;SDS_P2;PMS_P1;PMS_P2;Temp;Humidity;BMP_temperature;BMP_pressure;BME280_temperature;BME280_humidity;BME280_pressure;Samples;Min_cycle;Max_cycle;Signal;HPM_P1;HPM_P2
2024/01/19 00:00:29;;;;;;;0.10;0.10;;;;;;;;;;1741818;28;20256;-59
2024/01/19 00:01:21;;;;;;;0.10;0.10;;;;;;;;;;1738675;28;20199;-59
2024/01/19 00:02:12;;;;;;;0.20;0.20;;;;;;;;;;1744183;28;20315;-59
2024/01/19 00:03:03;;;;;;;0.15;0.15;;;;;;;;;;1742832;28;20204;-59
2024/01/19 00:03:56;;;;;;;0.20;0.20;;;;;;;;;;1743748;28;20226;-59
2024/01/19 00:04:47;;;;;;;0.30;0.30;;;;;;;;;;1743099;28;20629;-59
2024/01/19 00:05:39;;;;;;;0.10;0.10;;;;;;;;;;1742102;28;20314;-59
2024/01/19 00:06:30;;;;;;;0.28;0.28;;;;;;;;;;1744991;28;20260;-59
2024/01/19 00:07:22;;;;;;;0.10;0.10;;;;;;;;;;1742108;28;20253;-60
2024/01/19 00:08:13;;;;;;;0.20;0.20;;;;;;;;;;1744779;28;20644;-59
2024/01/19 00:09:06;;;;;;;0.10;0.10;;;;;;;;;;1741508;28;20577;-59
2024/01/19 00:09:59;;;;;;;0.20;0.20;;;;;;;;;;1743240;28;20662;-59
2024/01/19 00:10:50;;;;;;;0.30;0.30;;;;;;;;;;1741854;28;20238;-59
2024/01/19 00:11:42;;;;;;;0.10;0.10;;;;;;;;;;1744795;28;20596;-59
2024/01/19 00:12:35;;;;;;;0.10;0.10;;;;;;;;;;1743982;28;20211;-59
2024/01/19 00:13:26;;;;;;;0.10;0.10;;;;;;;;;;1744711;28;20731;-59
2024/01/19 00:14:18;;;;;;;0.10;0.10;;;;;;;;;;1742962;28;20682;-59
2024/01/19 00:15:09;;;;;;;0.20;0.20;;;;;;;;;;1738039;28;20277;-59
2024/01/19 00:16:01;;;;;;;0.10;0.10;;;;;;;;;;1741991;28;20260;-59
2024/01/19 00:16:53;;;;;;;0.10;0.10;;;;;;;;;;1743332;28;20201;-59
2024/01/19 00:17:44;;;;;;;0.20;0.20;;;;;;;;;;1743973;28;20277;-59
2024/01/19 00:18:35;;;;;;;0.00;0.00;;;;;;;;;;1742697;28;20220;-58
2024/01/19 00:19:27;;;;;;;0.30;0.30;;;;;;;;;;1742081;28;20220;-59
2024/01/19 00:20:18;;;;;;;0.10;0.10;;;;;;;;;;1743423;28;20242;-58
2024/01/19 00:21:09;;;;;;;0.20;0.20;;;;;;;;;;1743846;28;20312;-59
2024/01/19 00:22:01;;;;;;;0.10;0.10;;;;;;;;;;1742061;28;20228;-59
2024/01/19 00:22:52;;;;;;;0.10;0.10;;;;;;;;;;1742822;28;20652;-60
2024/01/19 00:23:44;;;;;;;0.38;0.38;;;;;;;;;;1743862;28;20205;-58
2024/01/19 00:24:36;;;;;;;0.10;0.10;;;;;;;;;;1743290;28;20574;-59
2024/01/19 00:25:28;;;;;;;0.00;0.00;;;;;;;;;;1743421;28;20269;-58
2024/01/19 00:26:19;;;;;;;0.05;0.05;;;;;;;;;;1746147;28;20243;-59
2024/01/19 00:27:11;;;;;;;0.20;0.20;;;;;;;;;;1744920;28;20214;-59
2024/01/19 00:28:02;;;;;;;0.10;0.10;;;;;;;;;;1744010;28;20202;-59
2024/01/19 00:28:55;;;;;;;0.10;0.10;;;;;;;;;;1742828;28;20547;-58
2024/01/19 00:29:47;;;;;;;0.13;0.13;;;;;;;;;;1743936;28;20716;-59
2024/01/19 00:30:38;;;;;;;0.03;0.03;;;;;;;;;;1743263;28;20246;-59
2024/01/19 00:31:29;;;;;;;0.00;0.00;;;;;;;;;;1744778;28;20193;-58
2024/01/19 00:32:21;;;;;;;0.20;0.20;;;;;;;;;;1744838;28;20259;-59
2024/01/19 00:33:12;;;;;;;0.10;0.10;;;;;;;;;;1746334;28;20248;-59
2024/01/19 00:34:11;;;;;;;0.20;0.20;;;;;;;;;;1741221;28;20722;-58
2024/01/19 00:35:03;;;;;;;0.10;0.10;;;;;;;;;;1744992;28;20652;-59
2024/01/19 00:35:54;;;;;;;0.20;0.20;;;;;;;;;;1743373;28;20311;-59
2024/01/19 00:36:45;;;;;;;0.10;0.10;;;;;;;;;;1743750;28;20213;-59
2024/01/19 00:37:37;;;;;;;0.30;0.30;;;;;;;;;;1743283;28;20685;-59
2024/01/19 00:38:28;;;;;;;0.10;0.10;;;;;;;;;;1744917;28;20211;-59
2024/01/19 00:39:19;;;;;;;0.20;0.20;;;;;;;;;;1741796;28;20202;-58
2024/01/19 00:40:12;;;;;;;0.17;0.17;;;;;;;;;;1746236;28;20209;-57
2024/01/19 00:41:05;;;;;;;0.10;0.10;;;;;;;;;;1739120;28;20240;-59
2024/01/19 00:41:56;;;;;;;0.10;0.10;;;;;;;;;;1742924;28;20228;-59
2024/01/19 00:42:48;;;;;;;0.10;0.10;;;;;;;;;;1742111;28;20285;-59
2024/01/19 00:43:39;;;;;;;0.00;0.00;;;;;;;;;;1745815;28;20255;-59
2024/01/19 00:44:31;;;;;;;0.20;0.20;;;;;;;;;;1742114;28;20204;-59
2024/01/19 00:45:22;;;;;;;0.13;0.13;;;;;;;;;;1744449;28;20217;-59
2024/01/19 00:46:13;;;;;;;0.00;0.00;;;;;;;;;;1746497;28;20285;-59
2024/01/19 00:47:05;;;;;;;0.15;0.15;;;;;;;;;;1743882;28;20215;-59
2024/01/19 00:47:56;;;;;;;0.17;0.17;;;;;;;;;;1744245;28;20256;-59
2024/01/19 00:48:47;;;;;;;0.20;0.20;;;;;;;;;;1744808;28;20195;-58
2024/01/19 00:49:39;;;;;;;0.30;0.30;;;;;;;;;;1742512;28;20719;-59
2024/01/19 00:50:30;;;;;;;0.00;0.00;;;;;;;;;;1745005;28;20291;-59
2024/01/19 00:51:21;;;;;;;0.15;0.15;;;;;;;;;;1743804;28;20194;-58
2024/01/19 00:52:13;;;;;;;0.03;0.03;;;;;;;;;;1745220;28;20242;-59
2024/01/19 00:53:04;;;;;;;0.15;0.15;;;;;;;;;;1748311;28;20546;-59
2024/01/19 00:53:56;;;;;;;0.15;0.15;;;;;;;;;;1748626;28;21020;-59
2024/01/19 00:54:47;;;;;;;0.10;0.10;;;;;;;;;;1749487;28;20573;-59
2024/01/19 00:55:38;;;;;;;0.10;0.10;;;;;;;;;;1747782;28;20335;-59
2024/01/19 00:56:31;;;;;;;0.10;0.10;;;;;;;;;;1749682;28;20200;-59
2024/01/19 00:57:23;;;;;;;0.00;0.00;;;;;;;;;;1743002;28;20213;-59
2024/01/19 00:58:15;;;;;;;0.20;0.20;;;;;;;;;;1739466;28;20349;-59
2024/01/19 00:59:07;;;;;;;0.25;0.25;;;;;;;;;;1742689;28;20208;-58
2024/01/19 00:59:58;;;;;;;0.40;0.40;;;;;;;;;;1744877;28;20682;-59
2024/01/19 01:00:50;;;;;;;0.20;0.20;;;;;;;;;;1743172;28;20615;-59
2024/01/19 01:01:43;;;;;;;0.20;0.20;;;;;;;;;;1747817;28;20225;-59
2024/01/19 01:02:35;;;;;;;0.10;0.10;;;;;;;;;;1748169;28;20482;-59
2024/01/19 01:03:29;;;;;;;0.20;0.20;;;;;;;;;;1752761;28;20211;-59
2024/01/19 01:04:21;;;;;;;0.20;0.20;;;;;;;;;;1748338;28;20203;-59
2024/01/19 01:05:12;;;;;;;0.40;0.40;;;;;;;;;;1752506;28;20245;-59
2024/01/19 01:06:03;;;;;;;0.10;0.10;;;;;;;;;;1751659;28;20315;-60
2024/01/19 01:06:55;;;;;;;0.20;0.20;;;;;;;;;;1753139;28;20278;-58
2024/01/19 01:07:46;;;;;;;0.00;0.00;;;;;;;;;;1750994;28;20207;-60
2024/01/19 01:08:38;;;;;;;0.00;0.00;;;;;;;;;;1752811;28;20244;-59
2024/01/19 01:09:30;;;;;;;0.00;0.00;;;;;;;;;;1747703;28;20237;-59
2024/01/19 01:10:22;;;;;;;0.00;0.00;;;;;;;;;;1751098;28;20231;-59
2024/01/19 01:11:12;;;;;;;0.20;0.20;;;;;;;;;;1751147;28;20236;-60
2024/01/19 01:12:06;;;;;;;0.10;0.10;;;;;;;;;;1750763;28;20236;-59
2024/01/19 01:13:01;;;;;;;0.10;0.10;;;;;;;;;;1750284;28;20228;-59
2024/01/19 01:13:52;;;;;;;0.10;0.10;;;;;;;;;;1743684;28;20253;-59
2024/01/19 01:14:44;;;;;;;0.10;0.10;;;;;;;;;;1744390;28;20199;-60
2024/01/19 01:15:35;;;;;;;0.00;0.00;;;;;;;;;;1743337;28;20309;-60
2024/01/19 01:16:26;;;;;;;0.10;0.10;;;;;;;;;;1745276;28;20564;-59
2024/01/19 01:17:18;;;;;;;0.10;0.10;;;;;;;;;;1742827;28;20208;-59
2024/01/19 01:18:09;;;;;;;0.05;0.05;;;;;;;;;;1750772;28;20320;-59
2024/01/19 01:19:01;;;;;;;0.20;0.20;;;;;;;;;;1746956;28;20202;-59
2024/01/19 01:19:52;;;;;;;0.05;0.05;;;;;;;;;;1750700;28;20209;-59
2024/01/19 01:20:44;;;;;;;0.20;0.20;;;;;;;;;;1748304;28;20234;-58
2024/01/19 01:21:35;;;;;;;0.10;0.10;;;;;;;;;;1746973;28;20193;-59
2024/01/19 01:22:26;;;;;;;0.10;0.10;;;;;;;;;;1747941;28;20206;-59
2024/01/19 01:23:18;;;;;;;0.60;0.60;;;;;;;;;;1753195;28;20238;-59
2024/01/19 01:24:09;;;;;;;0.20;0.20;;;;;;;;;;1746750;28;20289;-60
2024/01/19 01:25:01;;;;;;;0.10;0.10;;;;;;;;;;1751968;28;20224;-59
2024/01/19 01:25:52;;;;;;;0.20;0.20;;;;;;;;;;1749262;28;20236;-59
2024/01/19 01:26:43;;;;;;;0.10;0.10;;;;;;;;;;1752061;28;20200;-59
2024/01/19 01:27:36;;;;;;;0.30;0.30;;;;;;;;;;1748393;28;20222;-63
2024/01/19 01:28:27;;;;;;;0.25;0.25;;;;;;;;;;1751995;28;20290;-58
2024/01/19 01:29:18;;;;;;;0.10;0.10;;;;;;;;;;1752135;28;20200;-59
2024/01/19 01:30:11;;;;;;;0.10;0.10;;;;;;;;;;1753185;28;20674;-59
2024/01/19 01:31:02;;;;;;;0.35;0.35;;;;;;;;;;1749376;28;20235;-59
2024/01/19 01:31:53;;;;;;;0.10;0.10;;;;;;;;;;1752952;28;20276;-59
2024/01/19 01:32:45;;;;;;;0.10;0.10;;;;;;;;;;1749418;28;20208;-59
2024/01/19 01:33:36;;;;;;;0.15;0.15;;;;;;;;;;1752627;28;20200;-59
2024/01/19 01:34:28;;;;;;;0.10;0.10;;;;;;;;;;1748849;28;20210;-59
2024/01/19 01:35:19;;;;;;;0.20;0.20;;;;;;;;;;1753575;28;20233;-59
2024/01/19 01:36:10;;;;;;;0.13;0.13;;;;;;;;;;1750668;28;20237;-59
2024/01/19 01:37:02;;;;;;;0.20;0.20;;;;;;;;;;1749324;28;20496;-58
2024/01/19 01:37:53;;;;;;;0.10;0.10;;;;;;;;;;1752416;28;20273;-59
2024/01/19 01:38:44;;;;;;;0.13;0.13;;;;;;;;;;1752073;28;20184;-59
2024/01/19 01:39:36;;;;;;;0.10;0.10;;;;;;;;;;1749228;28;20481;-59
2024/01/19 01:40:27;;;;;;;0.20;0.20;;;;;;;;;;1749647;28;20206;-60
2024/01/19 01:41:18;;;;;;;0.10;0.10;;;;;;;;;;1754095;28;20193;-59
2024/01/19 01:42:10;;;;;;;0.10;0.10;;;;;;;;;;1751538;28;20203;-58
2024/01/19 01:43:04;;;;;;;0.10;0.10;;;;;;;;;;1744531;28;20212;-59
2024/01/19 01:43:56;;;;;;;0.10;0.10;;;;;;;;;;1743691;28;20304;-59
2024/01/19 01:44:47;;;;;;;0.30;0.30;;;;;;;;;;1745249;28;20302;-59
2024/01/19 01:45:38;;;;;;;0.00;0.00;;;;;;;;;;1744210;28;20536;-59
2024/01/19 01:46:30;;;;;;;0.17;0.17;;;;;;;;;;1746005;28;20206;-59
2024/01/19 01:47:21;;;;;;;0.10;0.10;;;;;;;;;;1743670;28;20627;-59
2024/01/19 01:48:12;;;;;;;0.00;0.00;;;;;;;;;;1745544;28;20274;-58
2024/01/19 01:49:05;;;;;;;0.10;0.10;;;;;;;;;;1741654;28;20219;-59
2024/01/19 01:49:56;;;;;;;0.00;0.00;;;;;;;;;;1744989;28;20867;-59
2024/01/19 01:50:47;;;;;;;0.40;0.40;;;;;;;;;;1743440;28;20705;-59
2024/01/19 01:51:39;;;;;;;0.40;0.40;;;;;;;;;;1740261;28;20212;-59
2024/01/19 01:52:31;;;;;;;0.10;0.10;;;;;;;;;;1743437;28;20258;-58
2024/01/19 01:53:23;;;;;;;0.10;0.10;;;;;;;;;;1746267;28;20203;-59
2024/01/19 01:54:14;;;;;;;0.10;0.10;;;;;;;;;;1741525;28;20640;-59
2024/01/19 01:55:05;;;;;;;0.35;0.35;;;;;;;;;;1745202;28;20525;-59
2024/01/19 01:55:57;;;;;;;0.10;0.10;;;;;;;;;;1742339;28;20234;-59
2024/01/19 01:56:49;;;;;;;0.10;0.10;;;;;;;;;;1742426;28;20240;-59
2024/01/19 01:57:41;;;;;;;0.08;0.08;;;;;;;;;;1738977;28;20218;-59
2024/01/19 01:58:35;;;;;;;0.13;0.13;;;;;;;;;;1739407;28;20345;-59
2024/01/19 01:59:26;;;;;;;0.10;0.10;;;;;;;;;;1744128;28;20211;-58
2024/01/19 02:00:19;;;;;;;0.30;0.30;;;;;;;;;;1738085;28;20197;-59
2024/01/19 02:01:10;;;;;;;0.20;0.20;;;;;;;;;;1744498;28;20230;-59
2024/01/19 02:02:01;;;;;;;0.10;0.10;;;;;;;;;;1744797;28;20506;-59
2024/01/19 02:02:54;;;;;;;0.10;0.10;;;;;;;;;;1741985;28;20207;-59
2024/01/19 02:03:45;;;;;;;0.10;0.10;;;;;;;;;;1743608;28;20212;-59
2024/01/19 02:04:36;;;;;;;0.17;0.17;;;;;;;;;;1745289;28;20281;-59
2024/01/19 02:05:28;;;;;;;0.08;0.08;;;;;;;;;;1743681;28;20207;-59
2024/01/19 02:06:20;;;;;;;0.10;0.10;;;;;;;;;;1746037;28;20413;-59
2024/01/19 02:07:11;;;;;;;0.30;0.30;;;;;;;;;;1743796;28;20222;-59
2024/01/19 02:08:03;;;;;;;0.10;0.10;;;;;;;;;;1743722;28;20630;-59
2024/01/19 02:08:55;;;;;;;0.10;0.10;;;;;;;;;;1743203;28;20348;-59
2024/01/19 02:09:47;;;;;;;0.20;0.20;;;;;;;;;;1745159;28;20214;-59
2024/01/19 02:10:39;;;;;;;0.13;0.13;;;;;;;;;;1743591;28;20307;-59
2024/01/19 02:11:30;;;;;;;0.30;0.30;;;;;;;;;;1745359;28;20199;-59
2024/01/19 02:12:22;;;;;;;0.20;0.20;;;;;;;;;;1742562;28;20214;-59
2024/01/19 02:13:13;;;;;;;0.10;0.10;;;;;;;;;;1745364;28;20711;-59
2024/01/19 02:14:09;;;;;;;0.20;0.20;;;;;;;;;;1741618;28;20679;-59
2024/01/19 02:15:00;;;;;;;0.15;0.15;;;;;;;;;;1743583;28;20282;-59
2024/01/19 02:15:55;;;;;;;0.03;0.03;;;;;;;;;;1741760;28;20226;-59
2024/01/19 02:16:46;;;;;;;0.10;0.10;;;;;;;;;;1745370;28;20664;-59
2024/01/19 02:17:38;;;;;;;0.10;0.10;;;;;;;;;;1743414;28;20629;-59
2024/01/19 02:18:29;;;;;;;0.10;0.10;;;;;;;;;;1745224;28;20275;-59
2024/01/19 02:19:20;;;;;;;0.22;0.22;;;;;;;;;;1741451;28;20199;-59
2024/01/19 02:20:12;;;;;;;0.20;0.20;;;;;;;;;;1745339;28;20208;-59
2024/01/19 02:21:03;;;;;;;0.20;0.20;;;;;;;;;;1738549;28;20243;-58
2024/01/19 02:21:56;;;;;;;0.30;0.30;;;;;;;;;;1742590;28;20226;-59
2024/01/19 02:22:48;;;;;;;0.17;0.17;;;;;;;;;;1741121;28;20226;-59
2024/01/19 02:23:48;;;;;;;0.20;0.20;;;;;;;;;;1745091;28;20210;-58
2024/01/19 02:24:40;;;;;;;0.13;0.13;;;;;;;;;;1741924;28;20204;-59
2024/01/19 02:25:31;;;;;;;0.10;0.10;;;;;;;;;;1745802;28;20212;-59
2024/01/19 02:26:24;;;;;;;0.10;0.10;;;;;;;;;;1745522;28;20199;-58
2024/01/19 02:27:15;;;;;;;0.10;0.10;;;;;;;;;;1743045;28;20218;-59
2024/01/19 02:28:06;;;;;;;0.43;0.43;;;;;;;;;;1739447;28;20203;-59
2024/01/19 02:28:58;;;;;;;0.00;0.00;;;;;;;;;;1740369;28;20321;-59
2024/01/19 02:29:49;;;;;;;0.10;0.10;;;;;;;;;;1745175;28;20694;-59
2024/01/19 02:30:40;;;;;;;0.20;0.20;;;;;;;;;;1742761;28;20230;-59
2024/01/19 02:31:32;;;;;;;0.10;0.10;;;;;;;;;;1745228;28;20190;-59
2024/01/19 02:32:23;;;;;;;0.10;0.10;;;;;;;;;;1742242;28;20650;-58
2024/01/19 02:33:14;;;;;;;0.10;0.10;;;;;;;;;;1738068;28;20206;-59
2024/01/19 02:34:06;;;;;;;0.20;0.20;;;;;;;;;;1740229;28;20210;-59
2024/01/19 02:34:57;;;;;;;0.03;0.03;;;;;;;;;;1744708;28;20261;-59
2024/01/19 02:35:48;;;;;;;0.10;0.10;;;;;;;;;;1740317;28;20237;-59
2024/01/19 02:36:41;;;;;;;0.10;0.10;;;;;;;;;;1737537;28;20202;-59
2024/01/19 02:37:32;;;;;;;0.10;0.10;;;;;;;;;;1741155;28;20730;-59
2024/01/19 02:38:23;;;;;;;0.10;0.10;;;;;;;;;;1739067;28;20199;-59
2024/01/19 02:39:15;;;;;;;0.10;0.10;;;;;;;;;;1738192;28;20239;-59
2024/01/19 02:40:09;;;;;;;0.10;0.10;;;;;;;;;;1739953;28;20207;-59
2024/01/19 02:41:00;;;;;;;0.20;0.20;;;;;;;;;;1738177;28;20227;-59
2024/01/19 02:41:52;;;;;;;0.20;0.20;;;;;;;;;;1741935;28;20314;-59
2024/01/19 02:42:43;;;;;;;0.20;0.20;;;;;;;;;;1741468;28;20280;-59
2024/01/19 02:43:34;;;;;;;0.10;0.10;;;;;;;;;;1739027;28;20199;-59
2024/01/19 02:44:26;;;;;;;0.10;0.10;;;;;;;;;;1741629;28;20314;-61
2024/01/19 02:45:17;;;;;;;0.10;0.10;;;;;;;;;;1737755;28;21049;-59
2024/01/19 02:46:09;;;;;;;0.10;0.10;;;;;;;;;;1743844;28;20633;-60
2024/01/19 02:47:01;;;;;;;0.52;0.52;;;;;;;;;;1741245;28;20693;-58
2024/01/19 02:47:52;;;;;;;0.20;0.20;;;;;;;;;;1737830;28;20344;-58
2024/01/19 02:48:43;;;;;;;0.10;0.10;;;;;;;;;;1738163;28;20229;-59
2024/01/19 02:49:35;;;;;;;0.20;0.20;;;;;;;;;;1743864;28;20318;-59
2024/01/19 02:50:26;;;;;;;0.20;0.20;;;;;;;;;;1737376;28;20761;-58
2024/01/19 02:51:17;;;;;;;0.20;0.20;;;;;;;;;;1741301;28;20203;-59
2024/01/19 02:52:09;;;;;;;0.10;0.10;;;;;;;;;;1738180;28;20585;-59
2024/01/19 02:53:00;;;;;;;0.20;0.20;;;;;;;;;;1738490;28;20211;-59
2024/01/19 02:53:51;;;;;;;0.13;0.13;;;;;;;;;;1738523;28;20212;-59
2024/01/19 02:54:43;;;;;;;0.20;0.20;;;;;;;;;;1740824;28;20204;-59
2024/01/19 02:55:35;;;;;;;0.10;0.10;;;;;;;;;;1737817;28;20208;-59
2024/01/19 02:56:26;;;;;;;0.20;0.20;;;;;;;;;;1745494;28;20208;-59
2024/01/19 02:57:18;;;;;;;0.20;0.20;;;;;;;;;;1738295;28;20204;-59
2024/01/19 02:58:09;;;;;;;0.22;0.22;;;;;;;;;;1738148;28;20214;-59
2024/01/19 02:59:01;;;;;;;0.25;0.25;;;;;;;;;;1740475;28;20200;-58
2024/01/19 02:59:52;;;;;;;0.10;0.10;;;;;;;;;;1744862;28;20732;-59
2024/01/19 03:00:44;;;;;;;0.10;0.10;;;;;;;;;;1743098;28;20770;-59
2024/01/19 03:01:36;;;;;;;0.10;0.10;;;;;;;;;;1739390;28;20206;-59
2024/01/19 03:02:27;;;;;;;0.20;0.20;;;;;;;;;;1741232;28;20589;-59
2024/01/19 03:03:18;;;;;;;0.20;0.20;;;;;;;;;;1745021;28;20242;-59
2024/01/19 03:04:10;;;;;;;0.20;0.20;;;;;;;;;;1740959;28;20207;-59
2024/01/19 03:05:01;;;;;;;0.10;0.10;;;;;;;;;;1740758;28;20679;-59
2024/01/19 03:05:52;;;;;;;0.22;0.22;;;;;;;;;;1737343;28;20714;-59
2024/01/19 03:06:44;;;;;;;0.20;0.20;;;;;;;;;;1738706;28;20562;-60
2024/01/19 03:07:35;;;;;;;0.20;0.20;;;;;;;;;;1739903;28;20205;-59
2024/01/19 03:08:27;;;;;;;0.08;0.08;;;;;;;;;;1745351;28;20265;-59
2024/01/19 03:09:18;;;;;;;0.20;0.20;;;;;;;;;;1742554;28;20378;-59
2024/01/19 03:10:09;;;;;;;0.08;0.08;;;;;;;;;;1742830;28;20567;-60
2024/01/19 03:11:03;;;;;;;0.25;0.25;;;;;;;;;;1741585;28;20303;-59
2024/01/19 03:11:54;;;;;;;0.15;0.15;;;;;;;;;;1745019;28;21043;-59
2024/01/19 03:12:45;;;;;;;0.13;0.13;;;;;;;;;;1739010;28;20923;-59
2024/01/19 03:13:37;;;;;;;0.17;0.17;;;;;;;;;;1738374;28;20443;-59
2024/01/19 03:14:28;;;;;;;0.40;0.40;;;;;;;;;;1744343;28;20876;-59
2024/01/19 03:15:19;;;;;;;0.20;0.20;;;;;;;;;;1736624;28;21024;-59
2024/01/19 03:16:11;;;;;;;0.22;0.22;;;;;;;;;;1739030;28;21996;-59
2024/01/19 03:17:10;;;;;;;0.20;0.20;;;;;;;;;;1738174;28;20263;-60
2024/01/19 03:18:02;;;;;;;0.32;0.32;;;;;;;;;;1738596;28;20257;-59
2024/01/19 03:18:55;;;;;;;0.10;0.10;;;;;;;;;;1739255;28;20206;-59
2024/01/19 03:19:46;;;;;;;0.47;0.47;;;;;;;;;;1742912;28;20194;-61
2024/01/19 03:20:38;;;;;;;0.30;0.30;;;;;;;;;;1737219;28;20199;-59
2024/01/19 03:21:29;;;;;;;0.10;0.10;;;;;;;;;;1738776;28;20207;-59
2024/01/19 03:22:20;;;;;;;0.32;0.32;;;;;;;;;;1738593;28;20214;-59
2024/01/19 03:23:11;;;;;;;0.25;0.25;;;;;;;;;;1738216;28;20313;-60
2024/01/19 03:24:03;;;;;;;0.20;0.20;;;;;;;;;;1739915;28;20211;-59
2024/01/19 03:24:54;;;;;;;0.40;0.40;;;;;;;;;;1740973;28;20262;-59
2024/01/19 03:25:46;;;;;;;0.20;0.20;;;;;;;;;;1737626;28;20312;-59
2024/01/19 03:26:39;;;;;;;0.30;0.30;;;;;;;;;;1739117;28;20207;-59
2024/01/19 03:27:30;;;;;;;0.10;0.10;;;;;;;;;;1745537;28;20354;-59
2024/01/19 03:28:22;;;;;;;0.20;0.20;;;;;;;;;;1750580;28;20285;-59
2024/01/19 03:29:13;;;;;;;0.20;0.20;;;;;;;;;;1745674;28;20218;-59
2024/01/19 03:30:06;;;;;;;0.10;0.10;;;;;;;;;;1744781;28;20215;-62
2024/01/19 03:30:57;;;;;;;0.20;0.20;;;;;;;;;;1738789;28;20283;-59
2024/01/19 03:31:49;;;;;;;0.20;0.20;;;;;;;;;;1738529;28;20285;-59
2024/01/19 03:32:40;;;;;;;0.25;0.25;;;;;;;;;;1740892;28;20204;-59
2024/01/19 03:33:31;;;;;;;0.30;0.30;;;;;;;;;;1750055;28;20208;-59
2024/01/19 03:34:23;;;;;;;0.20;0.20;;;;;;;;;;1741234;28;20249;-59
2024/01/19 03:35:14;;;;;;;0.05;0.05;;;;;;;;;;1738596;28;20215;-59
2024/01/19 03:36:06;;;;;;;0.20;0.20;;;;;;;;;;1737005;28;20231;-59
2024/01/19 03:37:03;;;;;;;0.25;0.25;;;;;;;;;;1741078;28;20219;-58
2024/01/19 03:37:55;;;;;;;0.40;0.40;;;;;;;;;;1741505;28;20202;-59
2024/01/19 03:38:46;;;;;;;0.00;0.00;;;;;;;;;;1742927;28;20207;-59
2024/01/19 03:39:38;;;;;;;0.20;0.20;;;;;;;;;;1744506;28;20198;-59
2024/01/19 03:40:29;;;;;;;0.10;0.10;;;;;;;;;;1737614;28;20674;-59
2024/01/19 03:41:20;;;;;;;0.25;0.25;;;;;;;;;;1738019;28;20590;-59
2024/01/19 03:42:13;;;;;;;0.10;0.10;;;;;;;;;;1739208;28;20696;-59
2024/01/19 03:43:04;;;;;;;0.20;0.20;;;;;;;;;;1740390;28;20249;-59
2024/01/19 03:43:56;;;;;;;0.20;0.20;;;;;;;;;;1738024;28;20204;-60
2024/01/19 03:44:47;;;;;;;0.10;0.10;;;;;;;;;;1743127;28;20274;-59
2024/01/19 03:45:38;;;;;;;0.20;0.20;;;;;;;;;;1741797;28;20719;-59
2024/01/19 03:46:30;;;;;;;0.20;0.20;;;;;;;;;;1738781;28;20195;-60
2024/01/19 03:47:21;;;;;;;0.20;0.20;;;;;;;;;;1741836;28;20225;-58
2024/01/19 03:48:13;;;;;;;0.10;0.10;;;;;;;;;;1738770;28;20203;-59
2024/01/19 03:49:04;;;;;;;0.10;0.10;;;;;;;;;;1741189;28;20210;-59
2024/01/19 03:49:55;;;;;;;0.10;0.10;;;;;;;;;;1744641;28;20293;-59
2024/01/19 03:50:47;;;;;;;0.00;0.00;;;;;;;;;;1740652;28;20235;-59
2024/01/19 03:51:38;;;;;;;0.30;0.30;;;;;;;;;;1744623;28;20218;-60
2024/01/19 03:52:29;;;;;;;0.10;0.10;;;;;;;;;;1741183;28;20266;-59
2024/01/19 03:53:21;;;;;;;0.10;0.10;;;;;;;;;;1738606;28;20226;-59
2024/01/19 03:54:12;;;;;;;0.13;0.13;;;;;;;;;;1741410;28;20271;-59
2024/01/19 03:55:03;;;;;;;0.20;0.20;;;;;;;;;;1743083;28;20215;-59
2024/01/19 03:55:55;;;;;;;0.10;0.10;;;;;;;;;;1740345;28;20216;-60
2024/01/19 03:56:46;;;;;;;0.30;0.30;;;;;;;;;;1740732;28;20261;-59
2024/01/19 03:57:39;;;;;;;0.03;0.03;;;;;;;;;;1740274;28;20210;-59
2024/01/19 03:58:30;;;;;;;0.38;0.38;;;;;;;;;;1738737;28;20204;-59
2024/01/19 03:59:21;;;;;;;0.10;0.10;;;;;;;;;;1740247;28;20272;-61
2024/01/19 04:00:14;;;;;;;0.10;0.10;;;;;;;;;;1745223;28;20388;-60
2024/01/19 04:01:05;;;;;;;0.20;0.20;;;;;;;;;;1737657;28;20740;-59
2024/01/19 04:01:56;;;;;;;0.30;0.30;;;;;;;;;;1738616;28;20252;-59
2024/01/19 04:02:48;;;;;;;0.20;0.20;;;;;;;;;;1741366;28;20212;-60
2024/01/19 04:03:39;;;;;;;0.30;0.30;;;;;;;;;;1739370;28;20200;-59
2024/01/19 04:04:30;;;;;;;0.30;0.30;;;;;;;;;;1741242;28;20748;-59
2024/01/19 04:05:22;;;;;;;0.13;0.13;;;;;;;;;;1737345;28;20718;-59
2024/01/19 04:06:14;;;;;;;0.30;0.30;;;;;;;;;;1738212;28;20702;-59
2024/01/19 04:07:06;;;;;;;0.25;0.25;;;;;;;;;;1742527;28;20673;-59
2024/01/19 04:07:57;;;;;;;0.20;0.20;;;;;;;;;;1738727;28;20268;-59
2024/01/19 04:08:48;;;;;;;0.00;0.00;;;;;;;;;;1739064;28;20259;-59
2024/01/19 04:09:40;;;;;;;0.10;0.10;;;;;;;;;;1744141;28;20336;-59
2024/01/19 04:10:31;;;;;;;0.32;0.32;;;;;;;;;;1742385;28;20673;-59
2024/01/19 04:11:22;;;;;;;0.10;0.10;;;;;;;;;;1738129;28;20652;-60
2024/01/19 04:12:15;;;;;;;0.20;0.20;;;;;;;;;;1739859;28;20214;-59
2024/01/19 04:13:07;;;;;;;0.10;0.10;;;;;;;;;;1740089;28;20679;-60
2024/01/19 04:13:58;;;;;;;0.10;0.10;;;;;;;;;;1740604;28;20213;-59
2024/01/19 04:14:51;;;;;;;0.30;0.30;;;;;;;;;;1742595;28;20265;-59
2024/01/19 04:15:42;;;;;;;0.30;0.30;;;;;;;;;;1738684;28;20238;-59
2024/01/19 04:16:33;;;;;;;0.10;0.10;;;;;;;;;;1739134;28;20253;-60
2024/01/19 04:17:25;;;;;;;0.20;0.20;;;;;;;;;;1741753;28;20300;-60
2024/01/19 04:18:16;;;;;;;0.10;0.10;;;;;;;;;;1744668;28;20210;-59
2024/01/19 04:19:07;;;;;;;0.28;0.28;;;;;;;;;;1740900;28;20211;-59
2024/01/19 04:19:59;;;;;;;0.32;0.32;;;;;;;;;;1745649;28;20252;-60
2024/01/19 04:20:50;;;;;;;0.10;0.10;;;;;;;;;;1740545;28;20364;-60
2024/01/19 04:21:41;;;;;;;0.10;0.10;;;;;;;;;;1744884;28;20725;-59
2024/01/19 04:22:33;;;;;;;0.10;0.10;;;;;;;;;;1743265;28;20673;-60
2024/01/19 04:23:24;;;;;;;0.10;0.10;;;;;;;;;;1743596;28;20357;-60
2024/01/19 04:24:15;;;;;;;0.20;0.20;;;;;;;;;;1740413;28;20202;-60
2024/01/19 04:25:07;;;;;;;0.20;0.20;;;;;;;;;;1744783;28;20211;-59
2024/01/19 04:25:58;;;;;;;0.30;0.30;;;;;;;;;;1742834;28;20295;-59
2024/01/19 04:26:49;;;;;;;0.15;0.15;;;;;;;;;;1743133;28;20213;-59
2024/01/19 04:27:41;;;;;;;0.20;0.20;;;;;;;;;;1741655;28;20190;-59
2024/01/19 04:28:33;;;;;;;0.10;0.10;;;;;;;;;;1739158;28;20612;-59
2024/01/19 04:29:24;;;;;;;0.13;0.13;;;;;;;;;;1743301;28;20558;-59
2024/01/19 04:30:17;;;;;;;0.10;0.10;;;;;;;;;;1739639;28;20464;-58
2024/01/19 04:31:08;;;;;;;0.10;0.10;;;;;;;;;;1738510;28;20299;-60
2024/01/19 04:31:59;;;;;;;0.10;0.10;;;;;;;;;;1739024;28;20292;-60
2024/01/19 04:32:51;;;;;;;0.10;0.10;;;;;;;;;;1742197;28;20384;-59
2024/01/19 04:33:42;;;;;;;0.20;0.20;;;;;;;;;;1739089;28;20260;-59
2024/01/19 04:34:33;;;;;;;0.13;0.13;;;;;;;;;;1745202;28;20738;-63
2024/01/19 04:35:25;;;;;;;0.20;0.20;;;;;;;;;;1743539;28;20214;-61
2024/01/19 04:36:17;;;;;;;0.13;0.13;;;;;;;;;;1739428;28;20265;-59
2024/01/19 04:37:08;;;;;;;0.00;0.00;;;;;;;;;;1742279;28;20251;-59
2024/01/19 04:38:00;;;;;;;0.30;0.30;;;;;;;;;;1744991;28;20202;-59
2024/01/19 04:38:52;;;;;;;0.20;0.20;;;;;;;;;;1743006;28;20210;-59
2024/01/19 04:39:43;;;;;;;0.20;0.20;;;;;;;;;;1744024;28;20291;-59
2024/01/19 04:40:35;;;;;;;0.17;0.17;;;;;;;;;;1738167;28;20276;-59
2024/01/19 04:41:26;;;;;;;0.40;0.40;;;;;;;;;;1738252;28;20234;-59
2024/01/19 04:42:17;;;;;;;0.15;0.15;;;;;;;;;;1739331;28;21532;-59
2024/01/19 04:43:08;;;;;;;0.10;0.10;;;;;;;;;;1743496;28;20259;-61
2024/01/19 04:44:02;;;;;;;0.00;0.00;;;;;;;;;;1741126;28;20209;-59
2024/01/19 04:44:53;;;;;;;0.20;0.20;;;;;;;;;;1744052;28;20574;-59
2024/01/19 04:45:44;;;;;;;0.20;0.20;;;;;;;;;;1741823;28;20620;-59
2024/01/19 04:46:36;;;;;;;0.10;0.10;;;;;;;;;;1739276;28;20610;-59
2024/01/19 04:47:29;;;;;;;0.17;0.17;;;;;;;;;;1741188;28;20207;-59
2024/01/19 04:48:21;;;;;;;0.20;0.20;;;;;;;;;;1744605;28;20205;-59
2024/01/19 04:49:12;;;;;;;0.20;0.20;;;;;;;;;;1743281;28;20617;-59
2024/01/19 04:50:05;;;;;;;0.30;0.30;;;;;;;;;;1741251;28;20211;-59
2024/01/19 04:50:56;;;;;;;0.30;0.30;;;;;;;;;;1739700;28;20874;-59
2024/01/19 04:51:48;;;;;;;0.10;0.10;;;;;;;;;;1740736;28;20684;-59
2024/01/19 04:52:39;;;;;;;0.20;0.20;;;;;;;;;;1742683;28;20202;-59
2024/01/19 04:53:31;;;;;;;0.20;0.20;;;;;;;;;;1745232;28;20253;-60
2024/01/19 04:54:22;;;;;;;0.17;0.17;;;;;;;;;;1742961;28;20279;-59
2024/01/19 04:55:14;;;;;;;0.10;0.10;;;;;;;;;;1739870;28;20289;-59
2024/01/19 04:56:05;;;;;;;0.15;0.15;;;;;;;;;;1739759;28;20838;-59
2024/01/19 04:56:56;;;;;;;0.25;0.25;;;;;;;;;;1738978;28;20202;-59
2024/01/19 04:57:48;;;;;;;0.22;0.22;;;;;;;;;;1742071;28;20278;-59
2024/01/19 04:58:40;;;;;;;0.20;0.20;;;;;;;;;;1738861;28;20559;-59
2024/01/19 04:59:33;;;;;;;0.28;0.28;;;;;;;;;;1740774;28;20244;-59
2024/01/19 05:00:24;;;;;;;0.20;0.20;;;;;;;;;;1742119;28;20208;-59
2024/01/19 05:01:17;;;;;;;0.10;0.10;;;;;;;;;;1739097;28;20212;-59
2024/01/19 05:02:09;;;;;;;0.38;0.38;;;;;;;;;;1739540;28;20727;-59
2024/01/19 05:03:01;;;;;;;0.20;0.20;;;;;;;;;;1740932;28;20211;-59
2024/01/19 05:03:52;;;;;;;0.10;0.10;;;;;;;;;;1739108;28;20242;-60
2024/01/19 05:04:44;;;;;;;0.05;0.05;;;;;;;;;;1742118;28;20905;-59
2024/01/19 05:05:35;;;;;;;0.20;0.20;;;;;;;;;;1742352;28;20228;-59
2024/01/19 05:06:26;;;;;;;0.20;0.20;;;;;;;;;;1738214;28;20207;-60
2024/01/19 05:07:18;;;;;;;0.20;0.20;;;;;;;;;;1740490;28;20214;-60
2024/01/19 05:08:09;;;;;;;0.30;0.30;;;;;;;;;;1740464;28;20214;-59
2024/01/19 05:09:01;;;;;;;0.00;0.00;;;;;;;;;;1741815;28;20203;-61
2024/01/19 05:09:52;;;;;;;0.20;0.20;;;;;;;;;;1743802;28;20218;-59